createdAt,value
2019-03-19T00:00:57.623Z,99.90
2019-03-19T00:03:26.839Z,99.90
2019-03-19T00:05:55.035Z,99.90
2019-03-19T00:08:23.141Z,99.90
2019-03-19T00:10:51.238Z,99.90
2019-03-19T00:13:19.381Z,99.90
2019-03-19T00:15:47.514Z,99.90
2019-03-19T00:18:15.704Z,99.90
2019-03-19T00:20:43.781Z,99.90
2019-03-19T00:23:11.947Z,99.90
2019-03-19T00:25:40.034Z,99.90
2019-03-19T00:28:08.126Z,99.90
2019-03-19T00:30:36.133Z,99.90
2019-03-19T00:33:04.693Z,99.90
2019-03-19T00:35:32.784Z,99.90
2019-03-19T00:38:00.814Z,99.90
2019-03-19T00:40:28.948Z,99.90
2019-03-19T00:42:56.958Z,99.90
2019-03-19T00:45:25.121Z,99.90
2019-03-19T00:47:53.272Z,99.90
2019-03-19T00:50:21.339Z,99.90
2019-03-19T00:52:49.370Z,99.90
2019-03-19T00:55:17.427Z,99.90
2019-03-19T00:57:46.311Z,99.90
2019-03-19T01:00:14.642Z,99.90
2019-03-19T01:02:42.704Z,99.90
2019-03-19T01:05:10.972Z,99.90
2019-03-19T01:07:39.109Z,99.90
2019-03-19T01:10:09.095Z,99.90
2019-03-19T01:12:37.199Z,99.90
2019-03-19T01:15:06.971Z,99.90
2019-03-19T01:17:35.129Z,99.90
2019-03-19T01:20:04.187Z,99.90
2019-03-19T01:22:32.397Z,99.90
2019-03-19T01:25:01.497Z,99.90
2019-03-19T01:27:29.737Z,99.90
2019-03-19T01:29:57.915Z,99.90
2019-03-19T01:32:26.018Z,99.90
2019-03-19T01:34:54.161Z,99.90
2019-03-19T01:37:22.366Z,99.90
2019-03-19T01:39:50.448Z,99.90
2019-03-19T01:42:18.489Z,99.90
2019-03-19T01:44:46.636Z,99.90
2019-03-19T01:47:14.706Z,99.90
2019-03-19T01:49:42.847Z,99.90
2019-03-19T01:52:10.971Z,99.90
2019-03-19T01:54:40.211Z,99.90
2019-03-19T01:57:08.326Z,99.90
2019-03-19T01:59:36.744Z,99.90
2019-03-19T02:02:05.797Z,99.90
2019-03-19T02:04:33.901Z,99.90
2019-03-19T02:07:02.077Z,99.90
2019-03-19T02:09:30.298Z,99.90
2019-03-19T02:11:58.492Z,99.90
2019-03-19T02:14:26.553Z,99.90
2019-03-19T02:16:54.661Z,99.90
2019-03-19T02:19:22.716Z,99.90
2019-03-19T02:21:51.824Z,99.90
2019-03-19T02:24:19.913Z,99.90
2019-03-19T02:26:48.107Z,99.90
2019-03-19T02:29:16.223Z,99.90
2019-03-19T02:31:44.414Z,99.90
2019-03-19T02:34:12.553Z,99.90
2019-03-19T02:36:40.700Z,99.90
2019-03-19T02:39:08.907Z,99.90
2019-03-19T02:41:37.210Z,99.90
2019-03-19T02:44:05.257Z,99.90
2019-03-19T02:46:33.515Z,99.90
2019-03-19T02:49:01.697Z,99.90
2019-03-19T02:51:29.895Z,99.90
2019-03-19T02:53:57.904Z,99.90
2019-03-19T02:56:32.725Z,99.90
2019-03-19T02:58:56.104Z,99.90
2019-03-19T03:01:24.190Z,99.90
2019-03-19T03:03:52.269Z,99.90
2019-03-19T03:06:20.360Z,99.90
2019-03-19T03:08:48.490Z,99.90
2019-03-19T03:11:16.561Z,99.90
2019-03-19T03:13:44.770Z,99.90
2019-03-19T03:16:12.921Z,99.90
2019-03-19T03:18:41.453Z,99.90
2019-03-19T03:21:09.609Z,99.90
2019-03-19T03:23:37.813Z,99.90
2019-03-19T03:26:05.914Z,99.90
2019-03-19T03:28:36.229Z,99.90
2019-03-19T03:31:04.581Z,99.90
2019-03-19T03:33:32.783Z,99.90
2019-03-19T03:36:00.957Z,99.90
2019-03-19T03:38:29.001Z,99.90
2019-03-19T03:40:57.050Z,99.90
2019-03-19T03:43:25.102Z,99.90
2019-03-19T03:45:53.263Z,99.90
2019-03-19T03:48:21.511Z,99.90
2019-03-19T03:50:49.577Z,99.90
2019-03-19T03:53:17.746Z,99.90
2019-03-19T03:55:47.975Z,99.90
2019-03-19T03:58:16.035Z,99.90
2019-03-19T04:00:44.086Z,99.90
2019-03-19T04:03:12.120Z,99.90
2019-03-19T04:05:40.182Z,99.90
2019-03-19T04:08:08.361Z,99.90
2019-03-19T04:10:36.569Z,99.90
2019-03-19T04:13:04.762Z,99.90
2019-03-19T04:15:32.934Z,99.90
2019-03-19T04:18:00.993Z,99.90
2019-03-19T04:20:29.162Z,99.90
2019-03-19T04:22:57.272Z,99.90
2019-03-19T04:25:25.487Z,99.90
2019-03-19T04:27:53.550Z,99.90
2019-03-19T04:30:21.689Z,99.90
2019-03-19T04:32:49.807Z,99.90
2019-03-19T04:35:18.104Z,99.90
2019-03-19T04:37:46.243Z,99.90
2019-03-19T04:40:14.436Z,99.90
2019-03-19T04:42:44.193Z,99.90
2019-03-19T04:45:12.353Z,99.90
2019-03-19T04:47:41.509Z,99.90
2019-03-19T04:50:09.712Z,99.90
2019-03-19T04:52:38.781Z,99.90
2019-03-19T04:55:07.458Z,99.90
2019-03-19T04:57:35.686Z,99.90
2019-03-19T05:00:04.808Z,99.90
2019-03-19T05:02:34.245Z,99.90
2019-03-19T05:05:02.342Z,99.90
2019-03-19T05:07:30.581Z,99.90
2019-03-19T05:09:58.677Z,99.90
2019-03-19T05:12:26.759Z,99.90
2019-03-19T05:14:54.783Z,99.90
2019-03-19T05:17:22.878Z,99.90
2019-03-19T05:19:50.942Z,99.90
2019-03-19T05:22:19.004Z,99.90
2019-03-19T05:24:47.066Z,99.90
2019-03-19T05:27:15.162Z,99.90
2019-03-19T05:29:43.274Z,99.90
2019-03-19T05:32:11.318Z,99.90
2019-03-19T05:34:39.356Z,99.90
2019-03-19T05:37:07.504Z,99.90
2019-03-19T05:39:35.611Z,99.90
2019-03-19T05:42:03.666Z,99.90
2019-03-19T05:44:31.831Z,99.90
2019-03-19T05:46:59.908Z,99.90
2019-03-19T05:49:28.029Z,99.90
2019-03-19T05:51:56.137Z,99.90
2019-03-19T05:54:24.301Z,99.90
2019-03-19T05:56:52.347Z,99.90
2019-03-19T05:59:21.699Z,99.90
2019-03-19T06:01:49.739Z,99.90
2019-03-19T06:04:17.828Z,99.90
2019-03-19T06:06:45.930Z,99.90
2019-03-19T06:09:13.985Z,99.90
2019-03-19T06:11:42.097Z,99.90
2019-03-19T06:14:10.169Z,99.90
2019-03-19T06:16:38.283Z,99.90
2019-03-19T06:19:06.433Z,99.90
2019-03-19T06:21:34.587Z,99.90
2019-03-19T06:24:02.776Z,99.90
2019-03-19T06:26:31.135Z,99.90
2019-03-19T06:28:59.255Z,99.90
2019-03-19T06:31:27.327Z,99.90
2019-03-19T06:33:55.614Z,99.90
2019-03-19T06:36:23.727Z,99.90
2019-03-19T06:38:51.837Z,99.90
2019-03-19T06:41:20.100Z,99.90
2019-03-19T06:43:48.205Z,99.90
2019-03-19T06:46:16.314Z,99.90
2019-03-19T06:48:44.471Z,99.90
2019-03-19T06:51:12.690Z,99.90
2019-03-19T06:53:40.803Z,99.90
2019-03-19T06:56:08.854Z,99.90
2019-03-19T06:58:37.103Z,99.90
2019-03-19T07:01:05.283Z,99.90
2019-03-19T07:03:33.299Z,99.90
2019-03-19T07:06:01.371Z,99.90
2019-03-19T07:08:29.603Z,99.90
2019-03-19T07:10:57.798Z,99.90
2019-03-19T07:13:26.004Z,99.90
2019-03-19T07:15:54.129Z,99.90
2019-03-19T07:18:22.262Z,99.90
2019-03-19T07:20:50.414Z,99.90
2019-03-19T07:23:18.682Z,99.90
2019-03-19T07:25:46.871Z,99.90
2019-03-19T07:28:21.914Z,99.90
2019-03-19T07:30:45.111Z,99.90
2019-03-19T07:33:13.397Z,99.90
2019-03-19T07:35:41.519Z,99.90
2019-03-19T07:38:09.854Z,99.90
2019-03-19T07:40:38.208Z,99.90
2019-03-19T07:43:06.286Z,99.90
2019-03-19T07:45:35.803Z,99.90
2019-03-19T07:48:03.856Z,99.90
2019-03-19T07:50:32.039Z,99.90
2019-03-19T07:53:00.412Z,99.90
2019-03-19T07:55:28.691Z,99.90
2019-03-19T07:57:56.957Z,99.90
2019-03-19T08:00:25.128Z,99.90
2019-03-19T08:02:53.248Z,99.90
2019-03-19T08:05:32.256Z,99.90
2019-03-19T08:07:51.443Z,99.90
2019-03-19T08:10:19.580Z,99.90
2019-03-19T08:12:47.731Z,99.90
2019-03-19T08:15:16.856Z,99.90
2019-03-19T08:17:45.908Z,99.90
2019-03-19T08:20:14.064Z,99.90
2019-03-19T08:22:42.390Z,99.90
2019-03-19T08:25:10.607Z,99.90
2019-03-19T08:27:38.901Z,99.90
2019-03-19T08:30:11.135Z,99.90
2019-03-19T08:32:40.339Z,99.90
2019-03-19T08:35:08.609Z,99.90
2019-03-19T08:37:36.733Z,99.90
2019-03-19T08:40:06.661Z,99.90
2019-03-19T08:42:34.857Z,99.90
2019-03-19T08:45:03.268Z,99.90
2019-03-19T08:47:31.316Z,99.90
2019-03-19T08:49:59.318Z,99.90
2019-03-19T08:52:27.420Z,99.90
2019-03-19T08:54:55.461Z,99.90
2019-03-19T08:57:23.570Z,99.90
2019-03-19T08:59:51.677Z,99.90
2019-03-19T09:02:19.741Z,99.90
2019-03-19T09:04:48.120Z,99.90
2019-03-19T09:07:16.750Z,99.90
2019-03-19T09:09:45.578Z,99.90
2019-03-19T09:12:13.874Z,99.90
2019-03-19T09:14:42.108Z,99.90
2019-03-19T09:17:10.214Z,99.90
2019-03-19T09:19:38.360Z,99.90
2019-03-19T09:22:06.440Z,99.90
2019-03-19T09:24:34.534Z,99.90
2019-03-19T09:27:02.684Z,99.90
2019-03-19T09:29:31.935Z,99.90
2019-03-19T09:32:00.113Z,99.90
2019-03-19T09:34:30.329Z,99.90
2019-03-19T09:36:58.484Z,99.90
2019-03-19T09:39:26.761Z,99.90
2019-03-19T09:41:54.871Z,99.90
2019-03-19T09:44:22.938Z,99.90
2019-03-19T09:46:51.048Z,98.90
2019-03-19T09:49:21.101Z,97.00
2019-03-19T09:51:49.300Z,98.50
2019-03-19T09:54:17.475Z,99.00
2019-03-19T09:56:45.621Z,99.90
2019-03-19T09:59:13.699Z,96.50
2019-03-19T10:01:41.809Z,95.40
2019-03-19T10:04:10.008Z,96.10
2019-03-19T10:06:38.209Z,93.40
2019-03-19T10:09:07.859Z,93.80
2019-03-19T10:11:35.887Z,95.80
2019-03-19T10:14:04.317Z,99.70
2019-03-19T10:16:32.893Z,99.90
2019-03-19T10:19:01.006Z,99.90
2019-03-19T10:21:29.177Z,99.90
2019-03-19T10:23:57.304Z,99.90
2019-03-19T10:26:25.498Z,99.90
2019-03-19T10:28:53.601Z,99.90
2019-03-19T10:31:21.679Z,94.80
2019-03-19T10:33:49.983Z,96.10
2019-03-19T10:36:18.159Z,94.30
2019-03-19T10:38:46.395Z,94.90
2019-03-19T10:41:14.441Z,94.10
2019-03-19T10:43:42.500Z,95.70
2019-03-19T10:46:11.696Z,97.30
2019-03-19T10:48:39.791Z,99.90
2019-03-19T10:51:07.896Z,99.30
2019-03-19T10:53:36.065Z,99.90
2019-03-19T10:56:04.191Z,99.90
2019-03-19T10:58:32.362Z,99.30
2019-03-19T11:01:02.050Z,98.00
2019-03-19T11:03:30.116Z,96.00
2019-03-19T11:05:58.313Z,95.90
2019-03-19T11:08:26.516Z,97.90
2019-03-19T11:10:54.666Z,97.60
2019-03-19T11:13:22.902Z,97.40
2019-03-19T11:15:50.967Z,97.40
2019-03-19T11:18:19.101Z,94.20
2019-03-19T11:20:47.189Z,97.10
2019-03-19T11:23:15.297Z,92.90
2019-03-19T11:25:53.958Z,93.00
2019-03-19T11:28:13.929Z,96.50
2019-03-19T11:30:42.171Z,97.20
2019-03-19T11:33:10.271Z,99.90
2019-03-19T11:35:38.475Z,98.80
2019-03-19T11:38:06.622Z,95.70
2019-03-19T11:40:34.746Z,95.60
2019-03-19T11:43:03.117Z,92.60
2019-03-19T11:45:31.438Z,93.10
2019-03-19T11:47:59.648Z,95.00
2019-03-19T11:50:27.768Z,97.50
2019-03-19T11:52:55.901Z,97.20
2019-03-19T11:55:24.600Z,98.50
2019-03-19T11:57:53.047Z,99.40
2019-03-19T12:00:35.379Z,98.40
2019-03-19T12:03:14.845Z,97.60
2019-03-19T12:05:35.697Z,97.30
2019-03-19T12:08:04.294Z,92.60
2019-03-19T12:10:32.476Z,92.50
2019-03-19T12:13:01.599Z,92.80
2019-03-19T12:15:29.755Z,94.50
2019-03-19T12:17:57.814Z,93.60
2019-03-19T12:20:26.158Z,94.20
2019-03-19T12:22:54.517Z,96.70
2019-03-19T12:25:22.745Z,96.10
2019-03-19T12:27:50.926Z,97.60
2019-03-19T12:30:22.581Z,96.00
2019-03-19T12:32:49.258Z,94.40
2019-03-19T12:35:17.556Z,96.70
2019-03-19T12:37:45.739Z,98.30
2019-03-19T12:40:14.164Z,97.50
2019-03-19T12:42:42.361Z,97.10
2019-03-19T12:45:12.679Z,93.10
2019-03-19T12:47:40.903Z,93.00
2019-03-19T12:50:11.802Z,93.80
2019-03-19T12:52:42.104Z,94.10
2019-03-19T12:55:10.879Z,95.70
2019-03-19T12:57:38.964Z,97.20
2019-03-19T13:00:12.564Z,96.20
2019-03-19T13:02:40.828Z,95.00
2019-03-19T13:05:09.049Z,94.70
2019-03-19T13:07:37.478Z,96.10
2019-03-19T13:10:08.095Z,96.80
2019-03-19T13:12:36.266Z,98.00
2019-03-19T13:15:05.105Z,98.90
2019-03-19T13:17:34.331Z,99.90
2019-03-19T13:20:03.011Z,98.90
2019-03-19T13:22:31.258Z,99.30
2019-03-19T13:24:59.410Z,99.00
2019-03-19T13:27:27.670Z,96.80
2019-03-19T13:29:55.709Z,97.70
2019-03-19T13:32:24.352Z,97.70
2019-03-19T13:34:52.820Z,95.70
2019-03-19T13:37:21.028Z,99.30
2019-03-19T13:39:49.092Z,99.10
2019-03-19T13:42:17.431Z,99.50
2019-03-19T13:44:45.750Z,99.90
2019-03-19T13:47:13.818Z,99.60
2019-03-19T13:49:43.385Z,99.90
2019-03-19T13:52:11.738Z,98.20
2019-03-19T13:54:39.984Z,95.60
2019-03-19T13:57:08.088Z,94.20
2019-03-19T13:59:36.323Z,94.70
2019-03-19T14:02:04.445Z,95.70
2019-03-19T14:04:32.787Z,94.10
2019-03-19T14:07:01.051Z,95.80
2019-03-19T14:09:29.310Z,96.80
2019-03-19T14:11:57.528Z,96.40
2019-03-19T14:14:25.859Z,95.00
2019-03-19T14:16:53.958Z,94.00
2019-03-19T14:19:22.285Z,92.10
2019-03-19T14:21:50.401Z,92.00
2019-03-19T14:24:18.436Z,91.90
2019-03-19T14:30:51.361Z,92.00
2019-03-19T14:33:19.516Z,91.20
2019-03-19T14:35:47.664Z,90.50
2019-03-19T14:38:15.814Z,91.50
2019-03-19T14:40:45.393Z,90.20
2019-03-19T14:43:13.674Z,90.50
2019-03-19T14:45:42.033Z,89.90
2019-03-19T14:48:10.224Z,90.70
2019-03-19T14:50:38.351Z,88.50
2019-03-19T14:53:06.486Z,87.90
2019-03-19T14:55:34.648Z,87.10
2019-03-19T14:58:02.948Z,84.80
2019-03-19T15:00:31.064Z,89.30
2019-03-19T15:02:59.158Z,88.30
2019-03-19T15:05:27.234Z,89.90
2019-03-19T15:07:55.250Z,88.10
2019-03-19T15:10:23.453Z,84.90
2019-03-19T15:12:51.729Z,85.40
2019-03-19T15:15:20.202Z,87.50
2019-03-19T15:17:48.442Z,82.60
2019-03-19T15:20:17.283Z,82.10
2019-03-19T15:22:45.920Z,80.10
2019-03-19T15:25:14.160Z,84.40
2019-03-19T15:27:43.144Z,82.00
2019-03-19T15:30:11.750Z,81.30
2019-03-19T15:32:40.053Z,77.50
2019-03-19T15:35:09.195Z,83.50
2019-03-19T15:37:38.455Z,86.40
2019-03-19T15:40:10.619Z,89.80
2019-03-19T15:42:39.218Z,90.20
2019-03-19T15:45:08.610Z,89.50
2019-03-19T15:47:36.615Z,87.70
2019-03-19T15:50:05.905Z,85.90
2019-03-19T15:52:33.919Z,82.80
2019-03-19T15:55:02.149Z,90.00
2019-03-19T15:57:30.311Z,90.80
2019-03-19T15:59:58.536Z,91.00
2019-03-19T16:02:26.803Z,92.00
2019-03-19T16:04:54.852Z,93.00
2019-03-19T16:07:24.049Z,92.60
2019-03-19T16:09:52.160Z,92.90
2019-03-19T16:12:20.452Z,93.10
2019-03-19T16:14:48.563Z,92.90
2019-03-19T16:17:16.790Z,94.90
2019-03-19T16:19:44.924Z,94.70
2019-03-19T16:22:13.457Z,94.80
2019-03-19T16:24:41.626Z,94.80
2019-03-19T16:27:09.783Z,94.60
2019-03-19T16:29:37.877Z,95.10
2019-03-19T16:32:05.979Z,94.90
2019-03-19T16:34:34.123Z,96.40
2019-03-19T16:37:02.163Z,96.10
2019-03-19T16:39:30.249Z,94.50
2019-03-19T16:41:58.446Z,94.10
2019-03-19T16:44:26.800Z,94.60
2019-03-19T16:46:54.939Z,95.30
2019-03-19T16:49:23.023Z,95.90
2019-03-19T16:51:51.043Z,97.60
2019-03-19T16:54:19.159Z,97.80
2019-03-19T16:56:47.269Z,98.80
2019-03-19T16:59:15.466Z,98.80
2019-03-19T17:01:43.555Z,99.20
2019-03-19T17:04:11.687Z,99.90
2019-03-19T17:06:39.915Z,99.90
2019-03-19T17:09:07.991Z,99.90
2019-03-19T17:11:36.060Z,99.90
2019-03-19T17:14:04.460Z,99.90
2019-03-19T17:16:32.710Z,99.90
2019-03-19T17:19:00.855Z,99.90
2019-03-19T17:21:29.022Z,99.90
2019-03-19T17:23:58.768Z,99.90
2019-03-19T17:26:27.155Z,99.90
2019-03-19T17:28:57.618Z,99.90
2019-03-19T17:31:25.830Z,99.90
2019-03-19T17:33:54.031Z,99.90
2019-03-19T17:36:22.094Z,99.90
2019-03-19T17:38:50.243Z,99.90
2019-03-19T17:41:18.323Z,99.90
2019-03-19T17:43:46.349Z,99.90
2019-03-19T17:46:14.651Z,99.90
2019-03-19T17:48:42.752Z,99.90
2019-03-19T17:51:10.865Z,99.90
2019-03-19T17:53:39.012Z,99.90
2019-03-19T17:56:07.243Z,99.90
2019-03-19T17:58:36.158Z,99.90
2019-03-19T18:01:04.389Z,99.90
2019-03-19T18:03:32.696Z,99.90
2019-03-19T18:06:00.779Z,99.90
2019-03-19T18:08:29.014Z,99.90
2019-03-19T18:10:57.059Z,99.90
2019-03-19T18:13:25.137Z,99.90
2019-03-19T18:15:53.206Z,99.90
2019-03-19T18:18:21.316Z,99.90
2019-03-19T18:20:49.438Z,99.90
2019-03-19T18:23:17.789Z,99.90
2019-03-19T18:25:45.818Z,99.90
2019-03-19T18:28:13.907Z,99.90
2019-03-19T18:30:42.088Z,99.90
2019-03-19T18:33:10.137Z,99.90
2019-03-19T18:35:38.223Z,99.90
2019-03-19T18:38:06.638Z,99.90
2019-03-19T18:40:34.984Z,99.90
2019-03-19T18:43:03.396Z,99.90
2019-03-19T18:45:32.143Z,99.90
2019-03-19T18:48:00.417Z,99.90
2019-03-19T18:50:28.513Z,99.90
2019-03-19T18:52:56.607Z,99.90
2019-03-19T18:55:24.640Z,99.90
2019-03-19T18:57:54.557Z,99.90
2019-03-19T19:00:22.829Z,99.90
2019-03-19T19:02:53.379Z,99.90
2019-03-19T19:05:21.628Z,99.90
2019-03-19T19:07:49.738Z,99.90
2019-03-19T19:10:27.471Z,99.90
2019-03-19T19:13:00.450Z,99.90
2019-03-19T19:15:28.687Z,99.90
2019-03-19T19:17:56.770Z,99.90
2019-03-19T19:20:24.887Z,99.90
2019-03-19T19:22:53.303Z,99.90
2019-03-19T19:25:21.433Z,99.90
2019-03-19T19:27:49.563Z,99.90
2019-03-19T19:30:18.232Z,99.90
2019-03-19T19:32:46.360Z,99.90
2019-03-19T19:35:14.741Z,99.90
2019-03-19T19:37:42.837Z,99.90
2019-03-19T19:40:12.685Z,99.90
2019-03-19T19:42:40.865Z,99.90
2019-03-19T19:45:09.603Z,99.90
2019-03-19T19:47:37.853Z,99.90
2019-03-19T19:50:07.973Z,99.90
2019-03-19T19:52:36.070Z,99.90
2019-03-19T19:55:04.626Z,99.90
2019-03-19T19:57:32.686Z,99.90
2019-03-19T20:00:01.906Z,99.90
2019-03-19T20:02:31.781Z,99.90
2019-03-19T20:05:03.291Z,99.90
2019-03-19T20:07:30.082Z,99.90
2019-03-19T20:09:58.164Z,99.90
2019-03-19T20:12:26.180Z,99.90
2019-03-19T20:14:54.521Z,99.90
2019-03-19T20:17:22.911Z,99.90
2019-03-19T20:19:51.172Z,99.90
2019-03-19T20:22:22.279Z,99.90
2019-03-19T20:24:50.612Z,99.90
2019-03-19T20:27:18.945Z,99.90
2019-03-19T20:29:48.804Z,99.90
2019-03-19T20:32:17.005Z,99.90
2019-03-19T20:34:45.247Z,99.90
2019-03-19T20:37:13.451Z,99.90
2019-03-19T20:39:42.598Z,99.90
2019-03-19T20:42:10.795Z,99.90
2019-03-19T20:44:38.945Z,99.90
2019-03-19T20:47:07.101Z,99.90
2019-03-19T20:49:46.961Z,99.90
2019-03-19T20:52:06.225Z,99.90
2019-03-19T20:54:34.399Z,99.90
2019-03-19T20:57:02.563Z,99.90
2019-03-19T20:59:30.648Z,99.90
2019-03-19T21:01:58.748Z,99.90
2019-03-19T21:04:29.013Z,99.90
2019-03-19T21:06:56.923Z,99.90
2019-03-19T21:09:24.985Z,99.90
2019-03-19T21:11:53.462Z,99.90
2019-03-19T21:14:21.770Z,99.90
2019-03-19T21:16:49.930Z,99.90
2019-03-19T21:19:18.292Z,99.90
2019-03-19T21:21:46.359Z,99.90
2019-03-19T21:24:14.796Z,99.90
2019-03-19T21:26:42.886Z,99.90
2019-03-19T21:29:11.202Z,99.90
2019-03-19T21:31:40.357Z,99.90
2019-03-19T21:34:08.452Z,99.90
2019-03-19T21:36:36.623Z,99.90
2019-03-19T21:39:07.009Z,99.90
2019-03-19T21:41:35.219Z,99.90
2019-03-19T21:44:04.362Z,99.90
2019-03-19T21:46:32.540Z,99.90
2019-03-19T21:49:00.645Z,99.90
2019-03-19T21:51:28.672Z,99.90
2019-03-19T21:53:56.994Z,99.90
2019-03-19T21:56:25.022Z,99.90
2019-03-19T21:58:53.206Z,99.90
2019-03-19T22:01:21.682Z,99.90
2019-03-19T22:03:49.813Z,99.90
2019-03-19T22:06:17.906Z,99.90
2019-03-19T22:08:46.223Z,99.90
2019-03-19T22:11:14.444Z,99.90
2019-03-19T22:13:42.845Z,99.90
2019-03-19T22:16:11.295Z,99.90
2019-03-19T22:18:39.420Z,99.90
2019-03-19T22:21:07.484Z,99.90
2019-03-19T22:23:35.787Z,99.90
2019-03-19T22:26:03.938Z,99.90
2019-03-19T22:28:32.154Z,99.90
2019-03-19T22:31:00.432Z,99.90
2019-03-19T22:33:28.708Z,99.90
2019-03-19T22:35:58.157Z,99.90
2019-03-19T22:38:26.342Z,99.90
2019-03-19T22:40:54.390Z,99.90
2019-03-19T22:43:25.983Z,99.90
2019-03-19T22:45:54.230Z,99.90
2019-03-19T22:48:22.533Z,99.90
2019-03-19T22:50:50.543Z,99.90
2019-03-19T22:53:18.689Z,99.90
2019-03-19T22:55:46.955Z,99.90
2019-03-19T22:58:15.038Z,99.90
2019-03-19T23:00:44.730Z,99.90
2019-03-19T23:03:13.354Z,99.90
2019-03-19T23:05:41.461Z,99.90
2019-03-19T23:08:09.685Z,99.90
2019-03-19T23:10:37.855Z,99.90
2019-03-19T23:13:06.103Z,99.90
2019-03-19T23:15:34.133Z,99.90
2019-03-19T23:18:02.507Z,99.90
2019-03-19T23:20:30.884Z,99.90
2019-03-19T23:22:59.077Z,99.90
2019-03-19T23:25:30.691Z,99.90
2019-03-19T23:27:59.003Z,99.90
2019-03-19T23:30:28.371Z,99.90
2019-03-19T23:32:56.776Z,99.90
2019-03-19T23:35:25.013Z,99.90
2019-03-19T23:37:53.105Z,99.90
2019-03-19T23:40:21.230Z,99.90
2019-03-19T23:42:49.473Z,99.90
2019-03-19T23:45:17.559Z,99.90
2019-03-19T23:47:45.628Z,99.90
2019-03-19T23:50:13.767Z,99.90
2019-03-19T23:52:41.889Z,99.90
2019-03-19T23:55:10.841Z,99.90
2019-03-19T23:57:38.985Z,99.90
